地図

経路データ

SID SEASON NUMBER BASIN SUBBASIN NAME ISO_TIME NATURE LAT LON WMO_WIND WMO_PRES WMO_AGENCY TRACK_TYPE DIST2LAND LANDFALL IFLAG USA_AGENCY USA_ATCF_ID USA_LAT USA_LON USA_RECORD USA_STATUS USA_WIND USA_PRES USA_SSHS USA_R34_NE USA_R34_SE USA_R34_SW USA_R34_NW USA_R50_NE USA_R50_SE USA_R50_SW USA_R50_NW USA_R64_NE USA_R64_SE USA_R64_SW USA_R64_NW USA_POCI USA_ROCI USA_RMW USA_EYE TOKYO_LAT TOKYO_LON TOKYO_GRADE TOKYO_WIND TOKYO_PRES TOKYO_R50_DIR TOKYO_R50_LONG TOKYO_R50_SHORT TOKYO_R30_DIR TOKYO_R30_LONG TOKYO_R30_SHORT TOKYO_LAND CMA_LAT CMA_LON CMA_CAT CMA_WIND CMA_PRES HKO_LAT HKO_LON HKO_CAT HKO_WIND HKO_PRES NEWDELHI_LAT NEWDELHI_LON NEWDELHI_GRADE NEWDELHI_WIND NEWDELHI_PRES NEWDELHI_CI NEWDELHI_DP NEWDELHI_POCI REUNION_LAT REUNION_LON REUNION_TYPE REUNION_WIND REUNION_PRES REUNION_TNUM REUNION_CI REUNION_RMW REUNION_R34_NE REUNION_R34_SE REUNION_R34_SW REUNION_R34_NW REUNION_R50_NE REUNION_R50_SE REUNION_R50_SW REUNION_R50_NW REUNION_R64_NE REUNION_R64_SE REUNION_R64_SW REUNION_R64_NW BOM_LAT BOM_LON BOM_TYPE BOM_WIND BOM_PRES BOM_TNUM BOM_CI BOM_RMW BOM_R34_NE BOM_R34_SE BOM_R34_SW BOM_R34_NW BOM_R50_NE BOM_R50_SE BOM_R50_SW BOM_R50_NW BOM_R64_NE BOM_R64_SE BOM_R64_SW BOM_R64_NW BOM_ROCI BOM_POCI BOM_EYE BOM_POS_METHOD BOM_PRES_METHOD NADI_LAT NADI_LON NADI_CAT NADI_WIND NADI_PRES WELLINGTON_LAT WELLINGTON_LON WELLINGTON_WIND WELLINGTON_PRES DS824_LAT DS824_LON DS824_STAGE DS824_WIND DS824_PRES TD9636_LAT TD9636_LON TD9636_STAGE TD9636_WIND TD9636_PRES TD9635_LAT TD9635_LON TD9635_WIND TD9635_PRES TD9635_ROCI NEUMANN_LAT NEUMANN_LON NEUMANN_CLASS NEUMANN_WIND NEUMANN_PRES MLC_LAT MLC_LON MLC_CLASS MLC_WIND MLC_PRES USA_GUST BOM_GUST BOM_GUST_PER REUNION_GUST REUNION_GUST_PER USA_SEAHGT USA_SEARAD_NE USA_SEARAD_SE USA_SEARAD_SW USA_SEARAD_NW STORM_SPEED STORM_DIR
1975230N12264 1975 75 EP MM ILSA 1975-08-18 00:00:00 TS 12.1000 -95.8000 30 hurdat_epa main 401 395 O________OO___ hurdat_epa EP091975 12.1000 -95.8000 TD 30 -1 12.1000 -95.8000 TC 30 12.1000 -95.8000 1 30 6 280
1975230N12264 1975 75 EP MM ILSA 1975-08-18 03:00:00 TS 12.1491 -96.0987 main 395 381 P________PP___ EP091975 12.1501 -96.1050 TD 30 -1 12.1501 -96.1050 TC 30 12.1453 -96.0734 1 31 6 280
1975230N12264 1975 75 EP MM ILSA 1975-08-18 06:00:00 TS 12.1985 -96.3915 30 hurdat_epa main 381 380 O________OP___ hurdat_epa EP091975 12.2000 -96.4000 TD 30 -1 12.2000 -96.4000 TC 30 12.1925 -96.3575 1 32 6 280
1975230N12264 1975 75 EP MM ILSA 1975-08-18 09:00:00 TS 12.2486 -96.6806 main 380 369 P________PP___ EP091975 12.2499 -96.6850 TD 32 -1 12.2499 -96.6850 TC 32 12.2434 -96.6628 1 33 6 280
1975230N12264 1975 75 EP MM ILSA 1975-08-18 12:00:00 TS 12.3000 -97.0000 35 hurdat_epa main 371 371 O________OO___ hurdat_epa EP091975 12.3000 -97.0000 TS 35 0 12.3000 -97.0000 TC 35 12.3000 -97.0000 2 35 7 278
1975230N12264 1975 75 EP MM ILSA 1975-08-18 15:00:00 TS 12.3468 -97.3888 main 379 368 P________PP___ EP091975 12.3425 -97.3925 TS 35 0 12.3425 -97.3925 TC 35 12.3639 -97.3737 2 35 8 278
1975230N12264 1975 75 EP MM ILSA 1975-08-18 18:00:00 TS 12.4070 -97.7930 35 hurdat_epa main 380 378 O________OP___ hurdat_epa EP091975 12.4000 -97.8000 TS 35 0 12.4000 -97.8000 TC 35 12.4352 -97.7650 2 35 8 281
1975230N12264 1975 75 EP MM ILSA 1975-08-18 21:00:00 TS 12.4968 -98.1677 main 387 386 P________PP___ EP091975 12.4925 -98.1725 TS 35 0 12.4925 -98.1725 TC 35 12.5139 -98.1488 2 35 7 286
1975230N12264 1975 75 EP MM ILSA 1975-08-19 00:00:00 TS 12.6000 -98.5000 35 hurdat_epa main 388 381 O________OO___ hurdat_epa EP091975 12.6000 -98.5000 TS 35 0 12.6000 -98.5000 TC 35 12.6000 -98.5000 2 35 6 289
1975230N12264 1975 75 EP MM ILSA 1975-08-19 03:00:00 TS 12.6976 -98.7692 main 384 377 P________PP___ EP091975 12.6999 -98.7650 TS 35 0 12.6999 -98.7650 TC 35 12.6885 -98.7860 2 35 5 292
1975230N12264 1975 75 EP MM ILSA 1975-08-19 06:00:00 TS 12.7969 -99.0075 35 hurdat_epa main 380 378 O________OP___ hurdat_epa EP091975 12.8000 -99.0000 TS 35 0 12.8000 -99.0000 TC 35 12.7847 -99.0376 2 35 5 292
1975230N12264 1975 75 EP MM ILSA 1975-08-19 09:00:00 TS 12.8917 -99.2541 main 382 377 P________PP___ EP091975 12.8925 -99.2500 TS 35 0 12.8925 -99.2500 TC 35 12.8885 -99.2704 2 35 5 293
1975230N12264 1975 75 EP MM ILSA 1975-08-19 12:00:00 TS 13.0000 -99.5000 35 hurdat_epa main 381 374 O________OO___ hurdat_epa EP091975 13.0000 -99.5000 TS 35 0 13.0000 -99.5000 TC 35 13.0000 -99.5000 2 35 5 298
1975230N12264 1975 75 EP MM ILSA 1975-08-19 15:00:00 TS 13.1459 -99.7476 main 377 363 P________PP___ EP091975 13.1500 -99.7500 TS 37 0 13.1500 -99.7500 TC 37 13.1298 -99.7378 2 40 6 301
1975230N12264 1975 75 EP MM ILSA 1975-08-19 18:00:00 TS 13.2930 -99.9955 40 hurdat_epa main 368 362 O________OP___ hurdat_epa EP091975 13.3000 -100.000 TS 40 0 13.3000 -100.000 TC 40 13.2648 -99.9775 2 45 5 299
1975230N12264 1975 75 EP MM ILSA 1975-08-19 21:00:00 TS 13.4104 -100.240 main 367 366 P________PP___ EP091975 13.4150 -100.243 TS 47 0 13.4150 -100.243 TC 47 13.3923 -100.228 2 50 5 293
1975230N12264 1975 75 EP MM ILSA 1975-08-20 00:00:00 TS 13.5000 -100.500 55 hurdat_epa main 368 363 O________OO___ hurdat_epa EP091975 13.5000 -100.500 TS 55 0 13.5000 -100.500 TC 55 13.5000 -100.500 2 55 5 286
1975230N12264 1975 75 EP MM ILSA 1975-08-20 03:00:00 TS 13.5594 -100.781 main 366 366 P________PP___ EP091975 13.5575 -100.785 TS 55 0 13.5575 -100.785 TC 55 13.5671 -100.767 2 56 6 280
1975230N12264 1975 75 EP MM ILSA 1975-08-20 06:00:00 TS 13.6029 -101.092 55 hurdat_epa main 378 378 O________OP___ hurdat_epa EP091975 13.6000 -101.100 TS 55 0 13.6000 -101.100 TC 55 13.6143 -101.060 2 57 6 278
1975230N12264 1975 75 EP MM ILSA 1975-08-20 09:00:00 TS 13.6447 -101.410 main 392 387 P________PP___ EP091975 13.6423 -101.413 TS 57 0 13.6423 -101.413 TC 57 13.6544 -101.398 2 58 7 278
1975230N12264 1975 75 EP MM ILSA 1975-08-20 12:00:00 TS 13.7000 -101.800 60 hurdat_epa main 404 404 O________OO___ hurdat_epa EP091975 13.7000 -101.800 TS 60 0 13.7000 -101.800 TC 60 13.7000 -101.800 2 60 9 280
1975230N12264 1975 75 EP MM ILSA 1975-08-20 15:00:00 TS 13.7962 -102.319 main 412 412 P________PP___ EP091975 13.8001 -102.320 TS 60 0 13.8001 -102.320 TC 60 13.7806 -102.313 2 61 11 280
1975230N12264 1975 75 EP MM ILSA 1975-08-20 18:00:00 TS 13.8932 -102.897 60 hurdat_epa main 426 426 O________OP___ hurdat_epa EP091975 13.9000 -102.900 TS 60 0 13.9000 -102.900 TC 60 13.8659 -102.885 2 62 11 278
1975230N12264 1975 75 EP MM ILSA 1975-08-20 21:00:00 TS 13.9606 -103.471 main 450 450 P________PP___ EP091975 13.9650 -103.473 TS 62 0 13.9650 -103.473 TC 62 13.9431 -103.463 2 63 11 276
1975230N12264 1975 75 EP MM ILSA 1975-08-21 00:00:00 TS 14.0000 -104.000 65 hurdat_epa main 472 472 O________OO___ hurdat_epa EP091975 14.0000 -104.000 HU 65 1 14.0000 -104.000 TC 65 14.0000 -104.000 4 65 9 273
1975230N12264 1975 75 EP MM ILSA 1975-08-21 03:00:00 TS 14.0100 -104.428 main 486 486 P________PP___ EP091975 14.0073 -104.430 HU 70 1 14.0073 -104.430 TC 70 14.0208 -104.417 4 67 8 270
1975230N12264 1975 75 EP MM ILSA 1975-08-21 06:00:00 TS 14.0043 -104.798 75 hurdat_epa main 500 500 O________OP___ hurdat_epa EP091975 14.0000 -104.800 HU 75 1 14.0000 -104.800 TC 75 14.0216 -104.788 4 70 7 269
1975230N12264 1975 75 EP MM ILSA 1975-08-21 09:00:00 TS 14.0022 -105.148 main 510 510 P________PP___ EP091975 13.9999 -105.150 HU 75 1 13.9999 -105.150 TC 75 14.0115 -105.139 4 72 7 270
1975230N12264 1975 75 EP MM ILSA 1975-08-21 12:00:00 TS 14.0000 -105.500 75 hurdat_epa main 526 526 O________OO___ hurdat_epa EP091975 14.0000 -105.500 HU 75 1 14.0000 -105.500 TC 75 14.0000 -105.500 4 75 7 270
1975230N12264 1975 75 EP MM ILSA 1975-08-21 15:00:00 TS 13.9974 -105.885 main 545 545 P________PP___ EP091975 13.9999 -105.885 HU 75 1 13.9999 -105.885 TC 75 13.9874 -105.886 4 75 8 270
1975230N12264 1975 75 EP MM ILSA 1975-08-21 18:00:00 TS 13.9954 -106.298 75 hurdat_epa main 566 566 O________OP___ hurdat_epa EP091975 14.0000 -106.300 HU 75 1 14.0000 -106.300 TC 75 13.9768 -106.290 4 75 8 269
1975230N12264 1975 75 EP MM ILSA 1975-08-21 21:00:00 TS 13.9895 -106.727 main 590 590 P________PP___ EP091975 13.9924 -106.728 HU 75 1 13.9924 -106.728 TC 75 13.9779 -106.724 4 75 9 270
1975230N12264 1975 75 EP MM ILSA 1975-08-22 00:00:00 TS 14.0000 -107.200 75 hurdat_epa main 622 622 O________OO___ hurdat_epa EP091975 14.0000 -107.200 HU 75 1 14.0000 -107.200 TC 75 14.0000 -107.200 4 75 10 273
1975230N12264 1975 75 EP MM ILSA 1975-08-22 03:00:00 TS 14.0379 -107.735 main 657 657 P________PP___ EP091975 14.0349 -107.728 HU 75 1 14.0349 -107.728 TC 75 14.0499 -107.764 4 77 11 276
1975230N12264 1975 75 EP MM ILSA 1975-08-22 06:00:00 TS 14.1042 -108.313 75 hurdat_epa main 681 681 O________OP___ hurdat_epa EP091975 14.1000 -108.300 HU 75 1 14.1000 -108.300 TC 75 14.1208 -108.365 4 80 12 278
1975230N12264 1975 75 EP MM ILSA 1975-08-22 09:00:00 TS 14.2014 -108.936 main 709 709 P________PP___ EP091975 14.2001 -108.930 HU 80 1 14.2001 -108.930 TC 80 14.2062 -108.958 4 82 12 280
1975230N12264 1975 75 EP MM ILSA 1975-08-22 12:00:00 TS 14.3000 -109.500 85 hurdat_epa main 742 742 O________OO___ hurdat_epa EP091975 14.3000 -109.500 HU 85 2 14.3000 -109.500 TC 85 14.3000 -109.500 4 85 9 279
1975230N12264 1975 75 EP MM ILSA 1975-08-22 15:00:00 TS 14.3456 -109.888 main 771 763 P________PP___ EP091975 14.3422 -109.880 HU 87 2 14.3422 -109.880 TC 87 14.3594 -109.917 4 87 7 279
1975230N12264 1975 75 EP MM ILSA 1975-08-22 18:00:00 TS 14.4063 -110.216 90 hurdat_epa main 786 786 O________OP___ hurdat_epa EP091975 14.4000 -110.200 HU 90 2 14.4000 -110.200 TC 90 14.4313 -110.281 4 90 7 284
1975230N12264 1975 75 EP MM ILSA 1975-08-22 21:00:00 TS 14.5174 -110.588 main 809 809 P________PP___ EP091975 14.5124 -110.578 HU 90 2 14.5124 -110.578 TC 90 14.5376 -110.630 4 92 8 291
1975230N12264 1975 75 EP MM ILSA 1975-08-23 00:00:00 TS 14.7000 -111.000 90 hurdat_epa main 824 824 O________OO___ hurdat_epa EP091975 14.7000 -111.000 HU 90 2 14.7000 -111.000 TC 90 14.7000 -111.000 4 95 10 298
1975230N12264 1975 75 EP MM ILSA 1975-08-23 03:00:00 TS 14.9705 -111.484 main 842 842 P________PP___ EP091975 14.9775 -111.492 HU 90 2 14.9775 -111.492 TC 90 14.9425 -111.450 4 93 11 302
1975230N12264 1975 75 EP MM ILSA 1975-08-23 06:00:00 TS 15.2880 -111.985 90 hurdat_epa main 864 854 O________OP___ hurdat_epa EP091975 15.3000 -112.000 HU 90 2 15.3000 -112.000 TC 90 15.2401 -111.927 4 92 11 304
1975230N12264 1975 75 EP MM ILSA 1975-08-23 09:00:00 TS 15.5934 -112.449 main 854 839 P________PP___ EP091975 15.5999 -112.458 HU 90 2 15.5999 -112.458 TC 90 15.5675 -112.416 4 91 11 305
1975230N12264 1975 75 EP MM ILSA 1975-08-23 12:00:00 TS 15.9000 -112.900 90 hurdat_epa main 839 825 O________OO___ hurdat_epa EP091975 15.9000 -112.900 HU 90 2 15.9000 -112.900 TC 90 15.9000 -112.900 4 90 11 305
1975230N12264 1975 75 EP MM ILSA 1975-08-23 15:00:00 TS 16.1940 -113.344 main 825 813 P________PP___ EP091975 16.1999 -113.350 HU 90 2 16.1999 -113.350 TC 90 16.1705 -113.318 4 90 10 305
1975230N12264 1975 75 EP MM ILSA 1975-08-23 18:00:00 TS 16.4892 -113.787 90 hurdat_epa main 818 809 O________OP___ hurdat_epa EP091975 16.5000 -113.800 HU 90 2 16.5000 -113.800 TC 90 16.4459 -113.735 4 90 10 305
1975230N12264 1975 75 EP MM ILSA 1975-08-23 21:00:00 TS 16.7715 -114.219 main 811 807 P________PP___ EP091975 16.7772 -114.228 HU 90 2 16.7772 -114.228 TC 90 16.7484 -114.184 4 90 11 305
1975230N12264 1975 75 EP MM ILSA 1975-08-24 00:00:00 TS 17.1000 -114.700 90 hurdat_epa main 813 806 O________OO___ hurdat_epa EP091975 17.1000 -114.700 HU 90 2 17.1000 -114.700 TC 90 17.1000 -114.700 4 90 13 307
1975230N12264 1975 75 EP MM ILSA 1975-08-24 03:00:00 TS 17.5280 -115.260 main 818 809 P________PP___ EP091975 17.5197 -115.248 HU 90 2 17.5197 -115.248 TC 90 17.5610 -115.307 4 90 15 308
1975230N12264 1975 75 EP MM ILSA 1975-08-24 06:00:00 TS 18.0129 -115.917 90 hurdat_epa main 823 823 O________OP___ hurdat_epa EP091975 18.0000 -115.900 HU 90 2 18.0000 -115.900 TC 90 18.0646 -115.986 4 90 17 306
1975230N12264 1975 75 EP MM ILSA 1975-08-24 09:00:00 TS 18.5242 -116.680 main 840 831 P________PP___ EP091975 18.5150 -116.670 HU 90 2 18.5150 -116.670 TC 90 18.5607 -116.722 4 90 18 303
1975230N12264 1975 75 EP MM ILSA 1975-08-24 12:00:00 TS 19.0000 -117.500 90 hurdat_epa main 846 844 O________OO___ hurdat_epa EP091975 19.0000 -117.500 HU 90 2 19.0000 -117.500 TC 90 19.0000 -117.500 1 90 18 300
1975230N12264 1975 75 EP MM ILSA 1975-08-24 15:00:00 TS 19.3934 -118.293 main 871 870 P________PP___ EP091975 19.4020 -118.293 HU 90 2 19.4020 -118.293 TC 90 19.3591 -118.293 1 90 17 295
1975230N12264 1975 75 EP MM ILSA 1975-08-24 18:00:00 TS 19.6899 -119.104 90 hurdat_epa main 910 910 O________OP___ hurdat_epa EP091975 19.7000 -119.100 HU 90 2 19.7000 -119.100 TC 90 19.6496 -119.120 1 90 16 288
1975230N12264 1975 75 EP MM ILSA 1975-08-24 21:00:00 TS 19.8949 -119.952 main 970 970 P________PP___ EP091975 19.9023 -119.950 HU 90 2 19.9023 -119.950 TC 90 19.8652 -119.962 1 90 16 281
1975230N12264 1975 75 EP MM ILSA 1975-08-25 00:00:00 TS 20.0000 -120.800 90 hurdat_epa main 1033 1033 O________OO___ hurdat_epa EP091975 20.0000 -120.800 HU 90 2 20.0000 -120.800 TC 90 20.0000 -120.800 4 90 16 275
1975230N12264 1975 75 EP MM ILSA 1975-08-25 03:00:00 TS 20.0352 -121.617 main 1088 1088 P________PP___ EP091975 20.0295 -121.608 HU 90 2 20.0295 -121.608 TC 90 20.0581 -121.654 4 87 15 270
1975230N12264 1975 75 EP MM ILSA 1975-08-25 06:00:00 TS 20.0081 -122.418 90 hurdat_epa main 1142 1142 O________OP___ hurdat_epa EP091975 20.0000 -122.400 HU 90 2 20.0000 -122.400 TC 90 20.0403 -122.492 4 85 15 267
1975230N12264 1975 75 EP MM ILSA 1975-08-25 09:00:00 TS 19.9616 -123.253 main 1204 1204 P________PP___ EP091975 19.9577 -123.245 HU 85 2 19.9577 -123.245 TC 85 19.9772 -123.284 4 82 15 266
1975230N12264 1975 75 EP MM ILSA 1975-08-25 12:00:00 TS 19.9000 -124.000 80 hurdat_epa main 1262 1262 O________OO___ hurdat_epa EP091975 19.9000 -124.000 HU 80 1 19.9000 -124.000 TC 80 19.9000 -124.000 4 80 12 265
1975230N12264 1975 75 EP MM ILSA 1975-08-25 15:00:00 TS 19.8464 -124.548 main 1307 1307 P________PP___ EP091975 19.8493 -124.537 HU 72 1 19.8493 -124.537 TC 72 19.8348 -124.592 4 75 10 264
1975230N12264 1975 75 EP MM ILSA 1975-08-25 18:00:00 TS 19.7935 -125.022 65 hurdat_epa main 1345 1345 O________OP___ hurdat_epa EP091975 19.8000 -125.000 HU 65 1 19.8000 -125.000 TC 65 19.7673 -125.111 4 70 9 263
1975230N12264 1975 75 EP MM ILSA 1975-08-25 21:00:00 TS 19.7311 -125.548 main 1391 1391 P________PP___ EP091975 19.7348 -125.535 HU 62 0 19.7348 -125.535 TC 62 19.7163 -125.599 4 65 10 265
1975230N12264 1975 75 EP MM ILSA 1975-08-26 00:00:00 TS 19.7000 -126.100 60 hurdat_epa main 1439 1439 O________OO___ hurdat_epa EP091975 19.7000 -126.100 TS 60 0 19.7000 -126.100 TC 60 19.7000 -126.100 2 60 11 270
1975230N12264 1975 75 EP MM ILSA 1975-08-26 03:00:00 TS 19.7281 -126.684 main 1487 1487 P________PP___ EP091975 19.7274 -126.692 TS 52 0 19.7274 -126.692 TC 52 19.7309 -126.649 2 53 11 275
1975230N12264 1975 75 EP MM ILSA 1975-08-26 06:00:00 TS 19.8001 -127.288 45 hurdat_epa main 1529 1529 O________OP___ hurdat_epa EP091975 19.8000 -127.300 TS 45 0 19.8000 -127.300 TC 45 19.8004 -127.241 2 47 12 278
1975230N12264 1975 75 EP MM ILSA 1975-08-26 09:00:00 TS 19.8952 -127.895 main 1573 1573 P________PP___ EP091975 19.8954 -127.902 TS 40 0 19.8954 -127.902 TC 40 19.8946 -127.863 2 41 12 280
1975230N12264 1975 75 EP MM ILSA 1975-08-26 12:00:00 TS 20.0000 -128.500 35 hurdat_epa main 1617 O________OO___ hurdat_epa EP091975 20.0000 -128.500 TS 35 0 20.0000 -128.500 TC 35 20.0000 -128.500 2 35 12 280

IBTrACS Databaseについて

本データベースは、米国NOAAが公開する1842年以降の世界の熱帯低気圧のベストトラックデータアーカイブInternational Best Track Archive for Climate Stewardship (IBTrACS)を、ウェブで閲覧しやすい形式に変換したものです。

最終更新日:2021-10-25